createdAt,value
2017-09-26T00:00:14.778Z,19.67
2017-09-26T00:02:42.394Z,19.53
2017-09-26T00:05:09.966Z,21.30
2017-09-26T00:07:37.562Z,20.90
2017-09-26T00:10:06.621Z,27.93
2017-09-26T00:12:34.224Z,19.83
2017-09-26T00:15:02.181Z,19.30
2017-09-26T00:17:29.763Z,18.80
2017-09-26T00:19:57.335Z,18.20
2017-09-26T00:22:25.294Z,20.53
2017-09-26T00:24:54.197Z,20.90
2017-09-26T00:27:23.170Z,17.87
2017-09-26T00:29:50.756Z,19.53
2017-09-26T00:32:18.869Z,17.60
2017-09-26T00:34:47.509Z,18.40
2017-09-26T00:37:16.378Z,18.27
2017-09-26T00:39:45.294Z,15.57
2017-09-26T00:42:12.872Z,18.23
2017-09-26T00:44:41.612Z,15.33
2017-09-26T00:47:09.193Z,17.73
2017-09-26T00:49:37.190Z,18.23
2017-09-26T00:52:04.794Z,19.17
2017-09-26T00:54:33.087Z,16.17
2017-09-26T00:57:00.685Z,16.63
2017-09-26T00:59:29.449Z,15.50
2017-09-26T01:01:59.898Z,17.60
2017-09-26T01:04:28.117Z,18.80
2017-09-26T01:06:58.408Z,19.83
2017-09-26T01:09:28.845Z,18.50
2017-09-26T01:11:57.633Z,17.53
2017-09-26T01:14:25.991Z,18.20
2017-09-26T01:16:53.553Z,16.47
2017-09-26T01:19:21.128Z,15.47
2017-09-26T01:21:50.107Z,15.37
2017-09-26T01:24:17.745Z,17.43
2017-09-26T01:26:45.690Z,19.70
2017-09-26T01:29:15.041Z,18.10
2017-09-26T01:31:44.446Z,18.10
2017-09-26T01:34:12.914Z,19.40
2017-09-26T01:36:41.918Z,22.27
2017-09-26T01:39:09.482Z,17.27
2017-09-26T01:41:37.097Z,18.50
2017-09-26T01:44:06.033Z,17.33
2017-09-26T01:46:33.983Z,18.70
2017-09-26T01:49:01.558Z,18.33
2017-09-26T01:51:30.561Z,17.60
2017-09-26T01:53:58.161Z,15.40
2017-09-26T01:56:25.736Z,20.23
2017-09-26T01:58:55.871Z,18.13
2017-09-26T02:01:23.995Z,20.90
2017-09-26T02:03:51.577Z,18.93
2017-09-26T02:06:21.483Z,18.57
2017-09-26T02:08:51.579Z,21.77
2017-09-26T02:11:22.410Z,18.17
2017-09-26T02:13:50.006Z,18.90
2017-09-26T02:16:17.563Z,16.50
2017-09-26T02:18:48.103Z,16.77
2017-09-26T02:21:15.730Z,19.90
2017-09-26T02:23:43.284Z,23.13
2017-09-26T02:26:10.921Z,20.90
2017-09-26T02:28:38.789Z,20.13
2017-09-26T02:31:07.044Z,18.00
2017-09-26T02:33:34.610Z,17.97
2017-09-26T02:36:02.184Z,18.77
2017-09-26T02:38:30.992Z,17.73
2017-09-26T02:40:59.434Z,17.93
2017-09-26T02:43:27.678Z,23.47
2017-09-26T02:45:55.386Z,18.43
2017-09-26T02:48:26.049Z,17.70
2017-09-26T02:50:54.030Z,18.60
2017-09-26T02:53:21.632Z,17.27
2017-09-26T02:55:49.591Z,15.67
2017-09-26T02:58:18.536Z,19.57
2017-09-26T03:00:46.249Z,15.80
2017-09-26T03:03:14.210Z,16.97
2017-09-26T03:05:41.770Z,20.23
2017-09-26T03:08:09.817Z,19.60
2017-09-26T03:10:37.407Z,19.60
2017-09-26T03:13:04.995Z,18.53
2017-09-26T03:15:32.583Z,17.17
2017-09-26T03:18:03.713Z,13.87
2017-09-26T03:20:31.577Z,17.27
2017-09-26T03:22:59.257Z,19.70
2017-09-26T03:25:27.163Z,13.17
2017-09-26T03:27:55.171Z,16.23
2017-09-26T03:30:22.753Z,16.33
2017-09-26T03:32:50.782Z,17.03
2017-09-26T03:35:18.301Z,18.13
2017-09-26T03:37:50.509Z,16.70
2017-09-26T03:40:20.200Z,18.00
2017-09-26T03:42:47.860Z,18.10
2017-09-26T03:45:15.427Z,16.17
2017-09-26T03:47:43.034Z,19.80
2017-09-26T03:50:10.952Z,19.00
2017-09-26T03:52:38.570Z,16.83
2017-09-26T03:55:06.128Z,15.67
2017-09-26T03:57:37.583Z,18.67
2017-09-26T04:00:05.597Z,16.93
2017-09-26T04:02:33.550Z,17.40
2017-09-26T04:05:01.242Z,15.70
2017-09-26T04:07:28.801Z,18.93
2017-09-26T04:09:58.094Z,16.47
2017-09-26T04:12:25.726Z,17.73
2017-09-26T04:14:53.310Z,13.87
2017-09-26T04:17:21.304Z,25.23
2017-09-26T04:19:48.880Z,16.90
2017-09-26T04:22:16.477Z,19.30
2017-09-26T04:24:44.791Z,22.80
2017-09-26T04:27:12.799Z,26.27
2017-09-26T04:29:41.706Z,29.33
2017-09-26T04:32:10.744Z,26.63
2017-09-26T04:34:38.315Z,26.17
2017-09-26T04:37:06.598Z,27.83
2017-09-26T04:39:34.188Z,26.17
2017-09-26T04:42:02.582Z,34.53
2017-09-26T04:44:31.551Z,23.10
2017-09-26T04:46:59.295Z,32.27
2017-09-26T04:49:27.081Z,24.17
2017-09-26T04:51:54.665Z,27.33
2017-09-26T04:54:22.682Z,21.17
2017-09-26T04:56:50.640Z,20.40
2017-09-26T04:59:18.527Z,19.47
2017-09-26T05:01:46.083Z,21.30
2017-09-26T05:04:13.656Z,18.80
2017-09-26T05:06:41.859Z,23.63
2017-09-26T05:09:09.419Z,23.30
2017-09-26T05:11:37.446Z,17.80
2017-09-26T05:14:05.058Z,27.90
2017-09-26T05:16:32.629Z,20.90
2017-09-26T05:19:00.220Z,25.13
2017-09-26T05:21:30.775Z,23.47
2017-09-26T05:23:58.360Z,24.80
2017-09-26T05:26:25.929Z,25.43
2017-09-26T05:28:54.984Z,28.10
2017-09-26T05:31:22.555Z,24.93
2017-09-26T05:33:50.153Z,25.00
2017-09-26T05:36:17.761Z,31.93
2017-09-26T05:38:45.702Z,28.30
2017-09-26T05:41:13.318Z,25.73
2017-09-26T05:43:40.953Z,26.23
2017-09-26T05:46:11.530Z,25.30
2017-09-26T05:48:39.590Z,29.07
2017-09-26T05:51:07.596Z,26.00
2017-09-26T05:53:35.159Z,25.47
2017-09-26T05:56:04.004Z,28.27
2017-09-26T05:58:31.582Z,35.33
2017-09-26T06:00:59.191Z,24.37
2017-09-26T06:03:26.780Z,30.10
2017-09-26T06:05:55.264Z,25.90
2017-09-26T06:08:24.269Z,30.90
2017-09-26T06:10:52.283Z,29.63
2017-09-26T06:13:19.862Z,43.97
2017-09-26T06:15:47.851Z,31.00
2017-09-26T06:18:16.132Z,52.70
2017-09-26T06:20:51.046Z,41.00
2017-09-26T06:23:18.641Z,34.87
2017-09-26T06:25:46.740Z,32.80
2017-09-26T06:28:14.893Z,29.90
2017-09-26T06:30:43.274Z,41.07
2017-09-26T06:33:10.886Z,46.57
2017-09-26T06:35:38.609Z,36.40
2017-09-26T06:38:07.592Z,55.03
2017-09-26T06:40:35.181Z,39.13
2017-09-26T06:43:03.196Z,44.73
2017-09-26T06:45:32.211Z,34.20
2017-09-26T06:48:00.943Z,43.07
2017-09-26T06:50:29.039Z,34.50
2017-09-26T06:52:57.007Z,37.10
2017-09-26T06:55:26.229Z,39.20
2017-09-26T06:57:54.245Z,40.07
2017-09-26T07:00:22.161Z,39.70
2017-09-26T07:02:49.766Z,42.80
2017-09-26T07:05:17.731Z,56.40
2017-09-26T07:07:45.634Z,45.20
2017-09-26T07:10:13.626Z,44.53
2017-09-26T07:12:41.217Z,56.23
2017-09-26T07:15:09.209Z,48.33
2017-09-26T07:17:37.139Z,49.10
2017-09-26T07:20:06.259Z,66.93
2017-09-26T07:22:33.867Z,46.60
2017-09-26T07:25:01.441Z,50.50
2017-09-26T07:27:29.053Z,58.83
2017-09-26T07:29:56.650Z,51.60
2017-09-26T07:32:24.291Z,61.13
2017-09-26T07:34:52.693Z,57.63
2017-09-26T07:37:20.583Z,55.53
2017-09-26T07:39:49.701Z,52.80
2017-09-26T07:42:17.935Z,66.73
2017-09-26T07:44:46.019Z,71.27
2017-09-26T07:47:14.669Z,57.63
2017-09-26T07:49:42.287Z,58.57
2017-09-26T07:52:09.850Z,61.70
2017-09-26T07:54:37.602Z,63.40
2017-09-26T07:57:05.607Z,67.33
2017-09-26T07:59:33.439Z,51.17
2017-09-26T08:02:02.345Z,58.03
2017-09-26T08:04:31.173Z,58.07
2017-09-26T08:06:59.676Z,50.83
2017-09-26T08:09:27.991Z,48.63
2017-09-26T08:11:55.624Z,52.57
2017-09-26T08:14:23.201Z,48.43
2017-09-26T08:16:50.823Z,57.47
2017-09-26T08:19:18.413Z,49.63
2017-09-26T08:21:46.349Z,55.27
2017-09-26T08:24:13.937Z,47.23
2017-09-26T08:26:41.517Z,51.20
2017-09-26T08:29:09.108Z,55.70
2017-09-26T08:31:37.394Z,50.63
2017-09-26T08:34:05.042Z,64.40
2017-09-26T08:36:33.591Z,57.70
2017-09-26T08:39:01.193Z,51.93
2017-09-26T08:41:28.801Z,57.23
2017-09-26T08:43:56.417Z,55.80
2017-09-26T08:46:24.264Z,56.97
2017-09-26T08:48:54.177Z,55.17
2017-09-26T08:51:23.009Z,60.10
2017-09-26T08:53:50.639Z,58.87
2017-09-26T08:56:19.901Z,56.13
2017-09-26T08:58:48.231Z,56.67
2017-09-26T09:01:16.446Z,58.17
2017-09-26T09:03:44.099Z,60.00
2017-09-26T09:06:12.046Z,65.30
2017-09-26T09:08:39.643Z,64.70
2017-09-26T09:11:07.608Z,61.10
2017-09-26T09:13:35.213Z,68.30
2017-09-26T09:16:02.788Z,61.53
2017-09-26T09:18:30.825Z,61.83
2017-09-26T09:20:58.409Z,65.87
2017-09-26T09:23:27.691Z,66.63
2017-09-26T09:25:55.322Z,66.70
2017-09-26T09:28:22.947Z,56.67
2017-09-26T09:30:51.846Z,60.10
2017-09-26T09:33:20.693Z,62.07
2017-09-26T09:35:48.346Z,66.67
2017-09-26T09:38:16.000Z,66.13
2017-09-26T09:40:43.776Z,67.67
2017-09-26T09:43:11.376Z,67.20
2017-09-26T09:45:38.966Z,64.87
2017-09-26T09:48:06.870Z,62.73
2017-09-26T09:50:35.052Z,62.47
2017-09-26T09:53:02.632Z,62.17
2017-09-26T09:55:30.524Z,62.20
2017-09-26T09:57:58.133Z,62.60
2017-09-26T10:00:25.723Z,63.40
2017-09-26T10:02:53.354Z,62.33
2017-09-26T10:05:20.932Z,64.60
2017-09-26T10:07:48.533Z,64.67
2017-09-26T10:10:16.493Z,66.30
2017-09-26T10:12:44.459Z,70.97
2017-09-26T10:15:12.374Z,61.50
2017-09-26T10:17:41.209Z,66.67
2017-09-26T10:20:09.197Z,68.70
2017-09-26T10:22:36.761Z,62.83
2017-09-26T10:25:04.385Z,63.03
2017-09-26T10:27:32.387Z,61.60
2017-09-26T10:30:00.010Z,66.73
2017-09-26T10:32:27.616Z,67.67
2017-09-26T10:34:55.251Z,67.57
2017-09-26T10:37:23.759Z,63.77
2017-09-26T10:39:51.518Z,63.30
2017-09-26T10:42:19.176Z,65.10
2017-09-26T10:44:46.790Z,64.10
2017-09-26T10:47:14.391Z,65.30
2017-09-26T10:49:41.982Z,64.77
2017-09-26T10:52:09.650Z,67.40
2017-09-26T10:54:37.231Z,63.57
2017-09-26T10:57:05.180Z,58.17
2017-09-26T10:59:32.852Z,60.57
2017-09-26T11:02:00.842Z,54.87
2017-09-26T11:04:28.488Z,60.00
2017-09-26T11:06:56.073Z,55.50
2017-09-26T11:09:23.718Z,54.67
2017-09-26T11:11:52.764Z,57.37
2017-09-26T11:14:20.365Z,56.37
2017-09-26T11:16:47.980Z,56.07
2017-09-26T11:19:15.888Z,49.40
2017-09-26T11:21:44.106Z,46.27
2017-09-26T11:24:11.721Z,63.97
2017-09-26T11:26:39.329Z,47.77
2017-09-26T11:29:06.930Z,42.80
2017-09-26T11:31:35.349Z,51.50
2017-09-26T11:34:03.150Z,47.80
2017-09-26T11:36:30.947Z,38.57
2017-09-26T11:38:58.557Z,40.23
2017-09-26T11:41:26.148Z,45.23
2017-09-26T11:43:53.851Z,38.50
2017-09-26T11:46:21.397Z,41.90
2017-09-26T11:48:48.994Z,37.93
2017-09-26T11:51:17.863Z,34.40
2017-09-26T11:53:45.488Z,35.93
2017-09-26T11:56:13.198Z,35.33
2017-09-26T11:58:40.816Z,36.20
2017-09-26T12:01:08.407Z,34.27
2017-09-26T12:03:36.030Z,33.27
2017-09-26T12:06:03.686Z,32.00
2017-09-26T12:08:31.289Z,36.57
2017-09-26T12:10:59.088Z,39.93
2017-09-26T12:13:32.238Z,31.83
2017-09-26T12:15:59.850Z,34.10
2017-09-26T12:18:27.426Z,31.40
2017-09-26T12:20:56.266Z,29.97
2017-09-26T12:23:24.278Z,32.83
2017-09-26T12:25:51.865Z,27.13
2017-09-26T12:28:19.474Z,24.70
2017-09-26T12:30:47.057Z,22.10
2017-09-26T12:33:14.653Z,22.40
2017-09-26T12:35:42.229Z,24.10
2017-09-26T12:38:10.770Z,24.27
2017-09-26T12:40:38.361Z,26.60
2017-09-26T12:43:06.351Z,23.60
2017-09-26T12:45:33.943Z,21.00
2017-09-26T12:48:01.483Z,23.47
2017-09-26T12:50:30.376Z,21.03
2017-09-26T12:52:58.511Z,20.53
2017-09-26T12:55:26.126Z,19.57
2017-09-26T12:57:53.765Z,18.47
2017-09-26T13:00:22.115Z,19.27
2017-09-26T13:02:50.502Z,23.00
2017-09-26T13:05:19.540Z,25.23
2017-09-26T13:07:47.124Z,19.13
2017-09-26T13:10:15.022Z,24.50
2017-09-26T13:12:44.003Z,19.97
2017-09-26T13:15:12.206Z,19.90
2017-09-26T13:17:41.213Z,21.60
2017-09-26T13:20:08.843Z,22.73
2017-09-26T13:22:36.493Z,21.67
2017-09-26T13:25:04.072Z,19.63
2017-09-26T13:27:31.714Z,23.57
2017-09-26T13:29:59.325Z,22.03
2017-09-26T13:32:26.917Z,21.70
2017-09-26T13:34:54.516Z,19.30
2017-09-26T13:37:22.189Z,19.63
2017-09-26T13:39:51.233Z,23.60
2017-09-26T13:42:19.998Z,23.03
2017-09-26T13:44:47.597Z,21.30
2017-09-26T13:47:15.214Z,23.23
2017-09-26T13:49:43.146Z,20.07
2017-09-26T13:52:12.010Z,19.53
2017-09-26T13:54:39.690Z,21.80
2017-09-26T13:57:07.291Z,19.33
2017-09-26T13:59:35.507Z,22.17
2017-09-26T14:02:03.085Z,23.10
2017-09-26T14:04:31.114Z,19.43
2017-09-26T14:06:58.697Z,19.97
2017-09-26T14:09:27.783Z,18.00
2017-09-26T14:11:55.374Z,19.40
2017-09-26T14:14:22.972Z,17.70
2017-09-26T14:16:50.586Z,16.77
2017-09-26T14:19:19.054Z,17.33
2017-09-26T14:21:47.037Z,17.20
2017-09-26T14:24:15.923Z,18.43
2017-09-26T14:26:44.247Z,13.43
2017-09-26T14:29:11.816Z,15.07
2017-09-26T14:31:40.719Z,16.63
2017-09-26T14:34:08.315Z,18.20
2017-09-26T14:36:35.903Z,18.27
2017-09-26T14:39:03.505Z,17.10
2017-09-26T14:41:31.106Z,14.13
2017-09-26T14:43:59.243Z,14.43
2017-09-26T14:46:29.332Z,15.10
2017-09-26T14:48:58.344Z,14.93
2017-09-26T14:51:25.915Z,13.93
2017-09-26T14:53:53.943Z,12.10
2017-09-26T14:56:22.079Z,12.43
2017-09-26T14:58:49.664Z,13.20
2017-09-26T15:01:17.283Z,12.60
2017-09-26T15:03:46.361Z,15.40
2017-09-26T15:06:13.940Z,11.93
2017-09-26T15:08:41.545Z,12.40
2017-09-26T15:11:09.134Z,11.13
2017-09-26T15:13:36.726Z,10.67
2017-09-26T15:16:04.312Z,10.07
2017-09-26T15:18:32.000Z,13.70
2017-09-26T15:20:59.858Z,10.40
2017-09-26T15:23:27.760Z,12.20
2017-09-26T15:25:55.361Z,10.83
2017-09-26T15:28:23.639Z,11.63
2017-09-26T15:30:51.779Z,10.93
2017-09-26T15:33:19.351Z,11.40
2017-09-26T15:35:47.389Z,11.73
2017-09-26T15:38:14.945Z,10.93
2017-09-26T15:40:42.905Z,11.83
2017-09-26T15:43:10.506Z,10.50
2017-09-26T15:45:38.850Z,11.00
2017-09-26T15:48:06.545Z,11.17
2017-09-26T15:50:34.138Z,13.07
2017-09-26T15:53:01.731Z,10.10
2017-09-26T15:55:29.334Z,9.90
2017-09-26T15:57:58.129Z,10.40
2017-09-26T16:00:25.672Z,13.30
2017-09-26T16:02:53.246Z,10.03
2017-09-26T16:05:20.956Z,9.87
2017-09-26T16:07:48.545Z,10.10
2017-09-26T16:10:18.902Z,12.53
2017-09-26T16:12:46.514Z,10.33
2017-09-26T16:15:14.104Z,11.33
2017-09-26T16:17:41.698Z,11.47
2017-09-26T16:20:09.258Z,10.77
2017-09-26T16:22:36.906Z,10.80
2017-09-26T16:25:04.509Z,15.50
2017-09-26T16:27:32.612Z,13.23
2017-09-26T16:30:00.223Z,14.03
2017-09-26T16:32:28.126Z,11.20
2017-09-26T16:34:57.242Z,9.10
2017-09-26T16:37:24.834Z,11.70
2017-09-26T16:39:52.480Z,10.00
2017-09-26T16:42:20.811Z,15.70
2017-09-26T16:44:48.488Z,17.50
2017-09-26T16:47:16.243Z,16.67
2017-09-26T16:49:44.305Z,34.13
2017-09-26T16:52:11.881Z,46.40
2017-09-26T16:54:39.476Z,14.37
2017-09-26T16:57:07.107Z,14.60
2017-09-26T16:59:34.686Z,11.23
2017-09-26T17:02:02.307Z,11.60
2017-09-26T17:04:29.885Z,10.73
2017-09-26T17:06:57.453Z,11.50
2017-09-26T17:09:25.838Z,15.37
2017-09-26T17:11:54.449Z,13.00
2017-09-26T17:14:23.443Z,14.07
2017-09-26T17:16:51.034Z,11.20
2017-09-26T17:19:18.628Z,13.57
2017-09-26T17:21:47.562Z,18.90
2017-09-26T17:26:49.072Z,11.40
2017-09-26T17:29:16.671Z,11.57
2017-09-26T17:31:44.260Z,8.60
2017-09-26T17:34:11.859Z,11.87
2017-09-26T17:36:39.441Z,12.43
2017-09-26T17:39:07.244Z,8.77
2017-09-26T17:41:34.813Z,12.87
2017-09-26T17:44:03.692Z,13.63
2017-09-26T17:46:31.427Z,20.33
2017-09-26T17:48:59.017Z,22.90
2017-09-26T17:51:26.625Z,19.07
2017-09-26T17:53:54.187Z,23.30
2017-09-26T17:56:21.767Z,19.97
2017-09-26T17:58:49.344Z,20.33
2017-09-26T18:01:17.395Z,17.90
2017-09-26T18:03:45.305Z,16.17
2017-09-26T18:06:12.906Z,16.80
2017-09-26T18:08:41.444Z,22.27
2017-09-26T18:11:09.059Z,14.13
2017-09-26T18:13:36.679Z,9.50
2017-09-26T18:16:04.281Z,12.83
2017-09-26T18:18:34.528Z,10.40
2017-09-26T18:21:02.154Z,10.13
2017-09-26T18:23:30.998Z,11.53
2017-09-26T18:26:02.888Z,11.23
2017-09-26T18:28:30.499Z,14.00
2017-09-26T18:30:58.583Z,12.80
2017-09-26T18:33:26.630Z,12.63
2017-09-26T18:35:54.573Z,12.37
2017-09-26T18:38:22.187Z,14.50
2017-09-26T18:40:49.816Z,13.90
2017-09-26T18:43:17.457Z,15.00
2017-09-26T18:45:45.956Z,13.10
2017-09-26T18:48:13.652Z,13.07
2017-09-26T18:50:41.253Z,14.30
2017-09-26T18:53:08.840Z,17.73
2017-09-26T18:55:38.004Z,17.93
2017-09-26T18:58:05.957Z,14.63
2017-09-26T19:00:34.022Z,14.83
2017-09-26T19:03:02.571Z,14.20
2017-09-26T19:05:30.216Z,21.03
2017-09-26T19:07:57.820Z,13.40
2017-09-26T19:10:26.740Z,13.90
2017-09-26T19:12:54.346Z,13.57
2017-09-26T19:15:21.937Z,14.40
2017-09-26T19:17:49.551Z,11.43
2017-09-26T19:20:17.154Z,16.77
2017-09-26T19:22:45.333Z,14.97
2017-09-26T19:25:14.747Z,12.87
2017-09-26T19:27:42.356Z,13.40
2017-09-26T19:30:10.848Z,14.07
2017-09-26T19:32:39.528Z,13.60
2017-09-26T19:35:08.086Z,15.03
2017-09-26T19:37:35.880Z,14.50
2017-09-26T19:40:03.484Z,14.90
2017-09-26T19:42:31.459Z,16.03
2017-09-26T19:44:59.091Z,23.60
2017-09-26T19:47:26.699Z,18.63
2017-09-26T19:49:54.446Z,17.90
2017-09-26T19:52:23.096Z,14.93
2017-09-26T19:54:50.727Z,16.83
2017-09-26T19:57:20.395Z,22.40
2017-09-26T19:59:48.130Z,17.33
2017-09-26T20:02:16.913Z,15.30
2017-09-26T20:04:44.526Z,17.70
2017-09-26T20:07:13.619Z,15.50
2017-09-26T20:09:41.430Z,16.40
2017-09-26T20:12:09.062Z,15.50
2017-09-26T20:14:36.667Z,16.10
2017-09-26T20:17:04.310Z,15.50
2017-09-26T20:19:31.901Z,15.30
2017-09-26T20:21:59.486Z,13.57
2017-09-26T20:24:27.123Z,15.93
2017-09-26T20:26:55.198Z,16.90
2017-09-26T20:29:22.816Z,15.87
2017-09-26T20:31:50.420Z,15.07
2017-09-26T20:34:18.037Z,16.10
2017-09-26T20:36:46.113Z,14.77
2017-09-26T20:39:13.769Z,14.73
2017-09-26T20:41:41.387Z,16.43
2017-09-26T20:44:09.001Z,18.93
2017-09-26T20:46:36.752Z,14.63
2017-09-26T20:49:05.799Z,15.00
2017-09-26T20:51:33.419Z,14.97
2017-09-26T20:54:01.364Z,18.23
2017-09-26T20:56:28.979Z,15.00
2017-09-26T20:58:56.593Z,15.87
2017-09-26T21:01:24.598Z,17.00
2017-09-26T21:03:52.326Z,21.50
2017-09-26T21:06:19.945Z,19.33
2017-09-26T21:08:47.538Z,17.77
2017-09-26T21:11:15.114Z,22.20
2017-09-26T21:13:42.708Z,21.80
2017-09-26T21:16:10.308Z,18.50
2017-09-26T21:18:37.923Z,20.80
2017-09-26T21:21:05.557Z,18.50
2017-09-26T21:23:33.168Z,22.70
2017-09-26T21:26:00.791Z,14.00
2017-09-26T21:28:28.404Z,14.40
2017-09-26T21:30:56.354Z,13.50
2017-09-26T21:33:23.956Z,13.30
2017-09-26T21:35:51.567Z,14.40
2017-09-26T21:38:20.591Z,13.57
2017-09-26T21:40:48.660Z,15.13
2017-09-26T21:43:17.679Z,15.00
2017-09-26T21:45:45.283Z,11.93
2017-09-26T21:48:13.229Z,10.40
2017-09-26T21:50:40.940Z,14.23
2017-09-26T21:53:10.628Z,12.77
2017-09-26T21:55:38.390Z,13.80
2017-09-26T21:58:05.974Z,14.00
2017-09-26T22:00:34.223Z,13.03
2017-09-26T22:03:02.175Z,11.90
2017-09-26T22:05:29.771Z,12.73
2017-09-26T22:07:57.390Z,14.73
2017-09-26T22:10:24.983Z,13.43
2017-09-26T22:12:52.618Z,12.17
2017-09-26T22:15:21.454Z,14.90
2017-09-26T22:17:51.501Z,12.83
2017-09-26T22:20:20.564Z,15.23
2017-09-26T22:22:48.253Z,15.13
2017-09-26T22:25:16.467Z,12.43
2017-09-26T22:27:44.396Z,14.47
2017-09-26T22:30:11.975Z,12.57
2017-09-26T22:32:39.583Z,15.30
2017-09-26T22:35:07.156Z,13.13
2017-09-26T22:37:34.746Z,15.50
2017-09-26T22:40:02.579Z,14.40
2017-09-26T22:42:30.989Z,14.70
2017-09-26T22:44:58.563Z,17.40
2017-09-26T22:47:26.852Z,11.57
2017-09-26T22:49:54.447Z,14.17
2017-09-26T22:52:22.033Z,16.27
2017-09-26T22:54:49.650Z,15.70
2017-09-26T22:57:17.240Z,12.60
2017-09-26T22:59:45.274Z,13.63
2017-09-26T23:02:12.863Z,15.80
2017-09-26T23:04:40.437Z,12.93
2017-09-26T23:07:09.488Z,12.00
2017-09-26T23:09:37.631Z,12.27
2017-09-26T23:12:05.553Z,19.23
2017-09-26T23:14:34.895Z,13.70
2017-09-26T23:17:02.506Z,12.30
2017-09-26T23:19:30.089Z,12.50
2017-09-26T23:21:58.021Z,13.13
2017-09-26T23:24:26.029Z,12.47
2017-09-26T23:26:53.606Z,11.80
2017-09-26T23:29:21.238Z,14.80
2017-09-26T23:31:48.856Z,14.37
2017-09-26T23:34:16.833Z,17.33
2017-09-26T23:36:44.409Z,11.30
2017-09-26T23:39:11.997Z,16.17
2017-09-26T23:41:39.562Z,14.40
2017-09-26T23:44:08.321Z,13.67
2017-09-26T23:46:36.269Z,12.30
2017-09-26T23:49:04.236Z,14.73
2017-09-26T23:51:31.836Z,12.77
2017-09-26T23:53:59.515Z,11.57
2017-09-26T23:56:27.573Z,15.30
2017-09-26T23:58:55.546Z,13.00
